Time;durP1;ratioP1;P1;durP2;ratioP2;P2;SDS_P1;SDS_P2;PMS_P1;PMS_P2;Temp;Humidity;BMP_temperature;BMP_pressure;BME280_temperature;BME280_humidity;BME280_pressure;Samples;Min_cycle;Max_cycle;Signal;HPM_P1;HPM_P2
2022/07/11 00:02:11;;;;;;;0.70;0.70;;;22.10;60.50;;;;;;4970562;28;20179;-71
2022/07/11 00:04:38;;;;;;;0.80;0.77;;;22.10;60.40;;;;;;4954479;28;20189;-71
2022/07/11 00:07:05;;;;;;;0.73;0.63;;;22.10;60.30;;;;;;4953568;29;20185;-71
2022/07/11 00:09:32;;;;;;;0.60;0.50;;;22.10;60.40;;;;;;4955776;28;20190;-71
2022/07/11 00:12:00;;;;;;;0.60;0.60;;;22.10;61.20;;;;;;4954309;29;20214;-71
2022/07/11 00:14:26;;;;;;;0.80;0.80;;;22.10;60.40;;;;;;4954093;28;20312;-71
2022/07/11 00:16:55;;;;;;;0.68;0.68;;;22.10;60.40;;;;;;4953803;28;20174;-71
2022/07/11 00:19:21;;;;;;;1.27;0.80;;;22.10;60.40;;;;;;4978149;28;20217;-71
2022/07/11 00:21:49;;;;;;;0.55;0.52;;;22.10;60.30;;;;;;4951757;28;20293;-71
2022/07/11 00:24:17;;;;;;;0.80;0.80;;;22.10;60.40;;;;;;4953927;28;20225;-72
2022/07/11 00:26:43;;;;;;;0.60;0.60;;;22.10;60.40;;;;;;4953690;28;20178;-71
2022/07/11 00:29:09;;;;;;;1.13;1.00;;;22.10;60.40;;;;;;4953982;28;20290;-71
2022/07/11 00:31:35;;;;;;;0.68;0.63;;;22.10;60.40;;;;;;4938013;28;20301;-71
2022/07/11 00:34:01;;;;;;;0.80;0.80;;;22.10;60.40;;;;;;4969691;28;20257;-71
2022/07/11 00:36:26;;;;;;;0.60;0.60;;;22.00;60.30;;;;;;4953190;29;20175;-71
2022/07/11 00:38:53;;;;;;;0.88;0.70;;;22.00;60.30;;;;;;4953825;28;20210;-71
2022/07/11 00:41:19;;;;;;;0.65;0.65;;;22.10;60.30;;;;;;4937924;28;20202;-71
2022/07/11 00:43:53;;;;;;;0.68;0.50;;;22.10;60.40;;;;;;4937642;28;20245;-71
2022/07/11 00:46:19;;;;;;;1.05;0.80;;;22.10;60.30;;;;;;4953244;29;20204;-71
2022/07/11 00:48:45;;;;;;;0.85;0.63;;;22.10;60.40;;;;;;4940226;28;20183;-71
2022/07/11 00:51:11;;;;;;;0.70;0.70;;;22.00;60.20;;;;;;4959526;28;20209;-71
2022/07/11 00:53:40;;;;;;;0.85;0.70;;;22.10;60.40;;;;;;4972708;28;20220;-71
2022/07/11 00:56:07;;;;;;;0.70;0.50;;;22.00;60.40;;;;;;4972398;28;20189;-71
2022/07/11 00:58:35;;;;;;;1.23;0.80;;;22.00;60.30;;;;;;4956809;28;20182;-71
2022/07/11 01:01:02;;;;;;;1.27;0.70;;;22.00;61.10;;;;;;4953395;28;20218;-71
2022/07/11 01:03:28;;;;;;;1.27;0.70;;;22.00;60.30;;;;;;4954465;28;20686;-71
2022/07/11 01:05:54;;;;;;;0.93;0.70;;;22.00;60.30;;;;;;4952199;28;20674;-71
2022/07/11 01:08:20;;;;;;;0.80;0.73;;;22.00;61.10;;;;;;4969014;28;20194;-71
2022/07/11 01:10:47;;;;;;;1.08;0.70;;;22.00;60.30;;;;;;4954405;28;20258;-71
2022/07/11 01:13:13;;;;;;;0.50;0.50;;;22.00;60.30;;;;;;4953523;28;20194;-71
2022/07/11 01:15:38;;;;;;;0.68;0.60;;;22.00;60.30;;;;;;4952972;29;20193;-71
2022/07/11 01:18:05;;;;;;;0.70;0.70;;;22.00;60.40;;;;;;4958421;28;20185;-71
2022/07/11 01:20:31;;;;;;;0.80;0.70;;;22.00;60.30;;;;;;4948106;28;20244;-71
2022/07/11 01:23:06;;;;;;;1.02;0.80;;;22.00;60.30;;;;;;4956532;28;20177;-71
2022/07/11 01:25:32;;;;;;;0.55;0.55;;;22.00;60.30;;;;;;4973005;28;20195;-71
2022/07/11 01:28:04;;;;;;;0.68;0.68;;;22.00;60.20;;;;;;4973670;28;20192;-71
2022/07/11 01:30:32;;;;;;;0.93;0.70;;;22.00;60.20;;;;;;4972658;28;20213;-71
2022/07/11 01:32:58;;;;;;;0.70;0.70;;;22.00;60.30;;;;;;4956526;28;20232;-71
2022/07/11 01:35:26;;;;;;;0.80;0.80;;;22.00;60.30;;;;;;4971567;28;20275;-71
2022/07/11 01:37:52;;;;;;;1.10;0.70;;;22.00;60.30;;;;;;4972281;28;20185;-71
2022/07/11 01:40:17;;;;;;;0.60;0.52;;;22.00;60.20;;;;;;4956352;28;20696;-71
2022/07/11 01:42:43;;;;;;;0.80;0.80;;;22.00;60.20;;;;;;4972317;28;20310;-71
2022/07/11 01:45:11;;;;;;;0.70;0.70;;;22.00;60.30;;;;;;4972136;28;20200;-71
2022/07/11 01:47:38;;;;;;;0.88;0.82;;;22.00;60.30;;;;;;4971702;28;20201;-71
2022/07/11 01:50:06;;;;;;;1.80;0.70;;;22.00;60.30;;;;;;4968065;28;20678;-71
2022/07/11 01:52:31;;;;;;;1.02;0.70;;;22.00;60.30;;;;;;4936924;29;20191;-71
2022/07/11 01:54:57;;;;;;;0.82;0.80;;;22.00;60.30;;;;;;4953138;28;20234;-71
2022/07/11 01:57:23;;;;;;;0.90;0.90;;;21.90;60.20;;;;;;4953538;28;20178;-71
2022/07/11 01:59:49;;;;;;;1.20;0.80;;;22.00;60.30;;;;;;4952673;28;20195;-71
2022/07/11 02:02:16;;;;;;;0.80;0.80;;;22.00;60.30;;;;;;4953024;28;20237;-71
2022/07/11 02:04:42;;;;;;;0.80;0.60;;;22.00;60.30;;;;;;4952981;28;20222;-71
2022/07/11 02:07:11;;;;;;;0.90;0.90;;;21.90;60.20;;;;;;4935166;28;20257;-71
2022/07/11 02:09:39;;;;;;;0.73;0.73;;;22.00;60.30;;;;;;4936410;28;20782;-71
2022/07/11 02:12:06;;;;;;;0.70;0.70;;;22.00;60.30;;;;;;4960596;28;20281;-71
2022/07/11 02:14:32;;;;;;;0.50;0.50;;;21.90;60.20;;;;;;4952752;28;20246;-71
2022/07/11 02:16:58;;;;;;;1.30;0.80;;;22.00;60.20;;;;;;4952151;28;20185;-71
2022/07/11 02:19:24;;;;;;;0.75;0.65;;;22.00;60.20;;;;;;4938253;28;20200;-71
2022/07/11 02:21:51;;;;;;;1.00;0.77;;;22.00;60.20;;;;;;4975512;28;20598;-71
2022/07/11 02:24:17;;;;;;;0.80;0.80;;;22.00;60.20;;;;;;4976750;28;20178;-71
2022/07/11 02:26:42;;;;;;;0.90;0.70;;;21.90;60.10;;;;;;4976008;28;20243;-71
2022/07/11 02:29:08;;;;;;;2.05;0.80;;;22.00;60.30;;;;;;4975709;28;20262;-71
2022/07/11 02:31:34;;;;;;;0.60;0.60;;;21.90;60.30;;;;;;4976487;28;20214;-71
2022/07/11 02:34:00;;;;;;;0.73;0.70;;;21.90;60.20;;;;;;4975314;28;20221;-71
2022/07/11 02:36:25;;;;;;;0.50;0.50;;;21.90;60.20;;;;;;4974938;28;20201;-70
2022/07/11 02:38:51;;;;;;;0.60;0.60;;;21.90;60.20;;;;;;4975253;28;20186;-71
2022/07/11 02:41:18;;;;;;;0.88;0.75;;;21.90;60.20;;;;;;4975193;28;20214;-71
2022/07/11 02:43:44;;;;;;;0.65;0.65;;;21.90;60.30;;;;;;4975162;28;20190;-71
2022/07/11 02:46:09;;;;;;;0.70;0.70;;;21.90;60.20;;;;;;4958654;28;20197;-71
2022/07/11 02:48:35;;;;;;;0.70;0.68;;;21.90;60.30;;;;;;4967314;28;20178;-71
2022/07/11 02:51:01;;;;;;;0.52;0.52;;;21.90;60.30;;;;;;4975198;28;20218;-71
2022/07/11 02:53:27;;;;;;;0.70;0.70;;;21.90;60.20;;;;;;4990849;28;20181;-71
2022/07/11 02:55:53;;;;;;;0.60;0.60;;;21.90;60.20;;;;;;4974315;28;20649;-71
2022/07/11 02:58:18;;;;;;;0.70;0.60;;;21.90;60.30;;;;;;4977988;28;20273;-71
2022/07/11 03:00:44;;;;;;;0.70;0.70;;;21.90;60.20;;;;;;4955461;28;20265;-71
2022/07/11 03:03:10;;;;;;;0.60;0.60;;;21.90;60.20;;;;;;4955342;28;20194;-71
2022/07/11 03:05:35;;;;;;;0.63;0.60;;;21.90;60.30;;;;;;4954930;28;20186;-70
2022/07/11 03:08:01;;;;;;;0.70;0.70;;;21.90;60.20;;;;;;4955394;28;20194;-71
2022/07/11 03:10:27;;;;;;;0.75;0.70;;;21.90;60.20;;;;;;4955229;28;20670;-71
2022/07/11 03:12:53;;;;;;;0.73;0.73;;;21.90;60.20;;;;;;4953740;28;20222;-70
2022/07/11 03:15:21;;;;;;;0.60;0.60;;;21.90;60.30;;;;;;4941474;29;20206;-71
2022/07/11 03:17:47;;;;;;;0.60;0.60;;;21.90;60.20;;;;;;4973104;28;20190;-71
2022/07/11 03:20:13;;;;;;;0.90;0.90;;;21.90;60.20;;;;;;4974489;28;20205;-71
2022/07/11 03:22:39;;;;;;;1.10;0.80;;;21.90;60.30;;;;;;4974802;28;20269;-71
2022/07/11 03:25:06;;;;;;;0.98;0.70;;;21.90;60.30;;;;;;4975727;28;20186;-71
2022/07/11 03:27:33;;;;;;;1.15;0.60;;;21.90;60.20;;;;;;4973646;28;20209;-71
2022/07/11 03:29:59;;;;;;;0.60;0.60;;;21.90;60.30;;;;;;4973860;28;20337;-71
2022/07/11 03:32:24;;;;;;;0.77;0.77;;;21.90;60.30;;;;;;4974452;28;20316;-71
2022/07/11 03:37:34;;;;;;;0.80;0.80;;;21.90;60.30;;;;;;4990021;28;20190;-71
2022/07/11 03:40:00;;;;;;;0.80;0.80;;;21.90;60.30;;;;;;4958343;28;20186;-71
2022/07/11 03:42:27;;;;;;;0.68;0.68;;;21.90;60.30;;;;;;4974563;28;20186;-71
2022/07/11 03:44:53;;;;;;;0.73;0.60;;;21.90;60.40;;;;;;4957514;28;20244;-71
2022/07/11 03:47:19;;;;;;;0.55;0.55;;;21.90;60.40;;;;;;4960149;28;20270;-71
2022/07/11 03:49:47;;;;;;;0.60;0.60;;;21.90;60.30;;;;;;4956288;28;20178;-71
2022/07/11 03:52:13;;;;;;;0.75;0.73;;;21.90;60.30;;;;;;4956292;28;20194;-72
2022/07/11 03:54:39;;;;;;;0.70;0.70;;;21.80;60.20;;;;;;4954642;28;20229;-71
2022/07/11 03:57:06;;;;;;;0.80;0.77;;;21.90;60.30;;;;;;4954911;28;20179;-71
2022/07/11 03:59:32;;;;;;;0.60;0.60;;;21.80;60.20;;;;;;4954336;29;20721;-71
2022/07/11 04:01:58;;;;;;;0.85;0.80;;;21.80;60.30;;;;;;4954428;28;20238;-71
2022/07/11 04:04:23;;;;;;;0.70;0.70;;;21.90;60.30;;;;;;4954277;28;20193;-71
2022/07/11 04:06:49;;;;;;;1.63;0.82;;;21.90;60.30;;;;;;4953674;28;20289;-71
2022/07/11 04:09:15;;;;;;;0.73;0.73;;;21.90;60.30;;;;;;4955451;28;20190;-71
2022/07/11 04:11:41;;;;;;;0.77;0.65;;;21.90;60.40;;;;;;4954245;29;20210;-71
2022/07/11 04:14:06;;;;;;;0.77;0.77;;;21.80;60.30;;;;;;4973383;28;20209;-70
2022/07/11 04:16:32;;;;;;;0.80;0.63;;;21.90;60.40;;;;;;4964956;28;20344;-71
2022/07/11 04:18:58;;;;;;;0.95;0.85;;;21.80;60.30;;;;;;4973415;28;20177;-72
2022/07/11 04:21:24;;;;;;;0.73;0.70;;;21.90;60.40;;;;;;4989819;28;20206;-71
2022/07/11 04:23:49;;;;;;;1.02;0.82;;;21.80;60.30;;;;;;4989489;28;20661;-71
2022/07/11 04:26:15;;;;;;;0.73;0.70;;;21.90;60.50;;;;;;4988781;28;20657;-71
2022/07/11 04:28:42;;;;;;;0.80;0.80;;;21.80;60.40;;;;;;4989292;28;20197;-71
2022/07/11 04:31:07;;;;;;;0.82;0.80;;;21.80;60.40;;;;;;4973426;28;20213;-71
2022/07/11 04:33:33;;;;;;;1.92;0.90;;;21.80;60.30;;;;;;4973482;28;20192;-71
2022/07/11 04:35:59;;;;;;;1.05;0.70;;;21.80;60.20;;;;;;4972390;28;20217;-71
2022/07/11 04:38:25;;;;;;;0.80;0.80;;;21.80;60.30;;;;;;4957017;28;20205;-71
2022/07/11 04:40:50;;;;;;;0.85;0.85;;;21.80;60.20;;;;;;4973003;28;20210;-71
2022/07/11 04:43:17;;;;;;;0.70;0.70;;;21.80;60.10;;;;;;4972728;28;20240;-71
2022/07/11 04:45:43;;;;;;;0.70;0.70;;;21.80;60.10;;;;;;4963432;28;20269;-71
2022/07/11 04:48:09;;;;;;;0.73;0.70;;;21.80;60.00;;;;;;4953856;28;20324;-71
2022/07/11 04:50:34;;;;;;;0.77;0.70;;;21.90;60.00;;;;;;4953450;29;20222;-71
2022/07/11 04:53:00;;;;;;;0.82;0.63;;;21.80;59.90;;;;;;4953553;28;20270;-71
2022/07/11 04:55:26;;;;;;;0.60;0.60;;;21.80;59.90;;;;;;4954705;29;20305;-71
2022/07/11 04:57:52;;;;;;;1.10;0.77;;;21.90;59.90;;;;;;4953088;29;20179;-71
2022/07/11 05:00:19;;;;;;;0.80;0.80;;;21.80;59.80;;;;;;4952569;28;20214;-71
2022/07/11 05:02:45;;;;;;;1.27;0.93;;;21.90;60.00;;;;;;4954849;28;20183;-71
2022/07/11 05:05:12;;;;;;;1.08;0.73;;;21.80;59.80;;;;;;4969443;28;20210;-71
2022/07/11 05:07:38;;;;;;;1.13;0.80;;;21.90;59.90;;;;;;4952601;28;20662;-71
2022/07/11 05:10:05;;;;;;;0.80;0.80;;;21.80;59.90;;;;;;4953431;28;20301;-71
2022/07/11 05:12:31;;;;;;;1.15;0.70;;;21.90;59.90;;;;;;4953262;28;20277;-71
2022/07/11 05:14:58;;;;;;;0.73;0.73;;;21.80;59.80;;;;;;4960677;28;20219;-71
2022/07/11 05:17:26;;;;;;;0.70;0.70;;;21.90;59.80;;;;;;4966982;28;20185;-71
2022/07/11 05:19:52;;;;;;;1.35;1.05;;;21.80;59.80;;;;;;4988768;28;20197;-71
2022/07/11 05:22:18;;;;;;;0.88;0.88;;;21.80;59.80;;;;;;4972444;28;20196;-71
2022/07/11 05:24:43;;;;;;;1.17;0.90;;;21.90;59.80;;;;;;4972882;28;20665;-71
2022/07/11 05:27:09;;;;;;;0.80;0.80;;;21.90;59.80;;;;;;4971697;28;20193;-71
2022/07/11 05:29:35;;;;;;;0.65;0.65;;;21.80;59.70;;;;;;4972476;28;20185;-71
2022/07/11 05:32:01;;;;;;;1.10;0.90;;;21.90;59.70;;;;;;4972341;28;20721;-71
2022/07/11 05:34:26;;;;;;;0.90;0.88;;;21.90;59.70;;;;;;4972261;28;20210;-71
2022/07/11 05:36:53;;;;;;;0.85;0.85;;;21.90;59.70;;;;;;4971893;28;20266;-71
2022/07/11 05:39:19;;;;;;;0.70;0.70;;;21.80;59.60;;;;;;4973394;28;20193;-71
2022/07/11 05:41:45;;;;;;;0.70;0.70;;;21.90;59.70;;;;;;4972519;28;20206;-71
2022/07/11 05:44:10;;;;;;;0.80;0.80;;;21.90;60.30;;;;;;4968594;28;20269;-71
2022/07/11 05:46:39;;;;;;;0.80;0.80;;;21.90;59.70;;;;;;4971528;28;20264;-71
2022/07/11 05:49:08;;;;;;;0.70;0.70;;;21.90;59.60;;;;;;4972171;28;20193;-71
2022/07/11 05:51:34;;;;;;;0.80;0.80;;;21.90;59.70;;;;;;4972065;28;20300;-71
2022/07/11 05:53:59;;;;;;;0.82;0.70;;;21.90;59.70;;;;;;4975181;28;20348;-71
2022/07/11 05:56:25;;;;;;;1.05;0.90;;;21.90;59.70;;;;;;4975686;28;20192;-71
2022/07/11 05:58:51;;;;;;;0.90;0.90;;;21.90;59.60;;;;;;4975955;28;20196;-71
2022/07/11 06:01:17;;;;;;;1.10;1.00;;;21.90;59.70;;;;;;4975846;28;20230;-71
2022/07/11 06:03:43;;;;;;;0.80;0.80;;;21.90;59.70;;;;;;4976050;28;20198;-71
2022/07/11 06:06:10;;;;;;;0.82;0.82;;;21.90;59.80;;;;;;4943090;28;20204;-71
2022/07/11 06:08:42;;;;;;;1.40;0.80;;;21.90;59.80;;;;;;4992313;28;20268;-71
2022/07/11 06:11:17;;;;;;;1.13;0.80;;;21.90;59.80;;;;;;4975574;28;20233;-71
2022/07/11 06:13:44;;;;;;;0.82;0.80;;;21.90;59.80;;;;;;4958272;28;20300;-71
2022/07/11 06:16:11;;;;;;;0.93;0.88;;;21.90;59.80;;;;;;4972001;28;20186;-72
2022/07/11 06:18:38;;;;;;;1.25;0.88;;;21.90;59.80;;;;;;4957508;28;20274;-71
2022/07/11 06:21:05;;;;;;;0.70;0.70;;;21.90;59.80;;;;;;4972243;28;20230;-71
2022/07/11 06:23:31;;;;;;;0.88;0.88;;;21.90;59.80;;;;;;4956553;28;20269;-71
2022/07/11 06:25:57;;;;;;;1.00;0.90;;;21.90;59.80;;;;;;4955496;29;20574;-72
2022/07/11 06:28:23;;;;;;;0.77;0.77;;;22.00;59.90;;;;;;4956239;29;20182;-71
2022/07/11 06:30:49;;;;;;;1.00;1.00;;;22.00;59.80;;;;;;4972522;28;20261;-71
2022/07/11 06:33:17;;;;;;;0.70;0.70;;;22.00;59.90;;;;;;4972087;28;20773;-71
2022/07/11 06:35:44;;;;;;;0.93;0.80;;;22.00;59.90;;;;;;4955793;29;20224;-71
2022/07/11 06:38:11;;;;;;;1.23;0.80;;;22.00;59.90;;;;;;4939593;28;20197;-71
2022/07/11 06:40:37;;;;;;;0.80;0.80;;;21.90;59.80;;;;;;4956168;28;20246;-71
2022/07/11 06:43:04;;;;;;;0.93;0.80;;;22.00;59.90;;;;;;4955930;28;20216;-71
2022/07/11 06:45:30;;;;;;;1.65;1.00;;;22.00;59.90;;;;;;4964974;28;20186;-71
2022/07/11 06:47:56;;;;;;;1.25;0.90;;;21.90;59.90;;;;;;4973820;28;20192;-71
2022/07/11 06:50:22;;;;;;;0.88;0.88;;;21.90;59.80;;;;;;4991434;28;20220;-71
2022/07/11 06:52:48;;;;;;;0.93;0.90;;;21.90;59.90;;;;;;4975035;28;20185;-71
2022/07/11 06:55:14;;;;;;;1.08;0.98;;;22.00;59.90;;;;;;4974880;28;20268;-71
2022/07/11 06:57:40;;;;;;;1.20;1.00;;;22.00;59.90;;;;;;4990620;28;20177;-71
2022/07/11 07:00:08;;;;;;;1.13;0.90;;;21.90;59.90;;;;;;4975722;28;20209;-71
2022/07/11 07:02:34;;;;;;;0.80;0.80;;;22.00;59.90;;;;;;4975155;28;20293;-71
2022/07/11 07:05:01;;;;;;;0.80;0.80;;;22.00;60.00;;;;;;4974160;28;20188;-71
2022/07/11 07:07:27;;;;;;;1.00;0.90;;;22.00;59.90;;;;;;4945248;28;20196;-71
2022/07/11 07:09:54;;;;;;;1.05;1.05;;;22.00;59.90;;;;;;4955919;28;20194;-71
2022/07/11 07:12:21;;;;;;;1.52;0.93;;;22.00;60.00;;;;;;4956425;28;20238;-71
2022/07/11 07:14:48;;;;;;;1.35;1.20;;;22.00;60.00;;;;;;4964852;28;20256;-71
2022/07/11 07:17:14;;;;;;;0.80;0.80;;;22.00;60.10;;;;;;4952338;29;20253;-71
2022/07/11 07:19:39;;;;;;;1.95;0.70;;;22.00;60.00;;;;;;4955081;28;20664;-71
2022/07/11 07:22:05;;;;;;;1.52;0.90;;;22.00;60.00;;;;;;4940190;28;20199;-71
2022/07/11 07:24:32;;;;;;;1.30;1.20;;;22.00;60.10;;;;;;4947053;28;20206;-71
2022/07/11 07:26:59;;;;;;;0.82;0.82;;;22.00;60.00;;;;;;4980493;28;20193;-71
2022/07/11 07:29:26;;;;;;;1.50;1.00;;;22.00;60.10;;;;;;4975108;28;20197;-71
2022/07/11 07:31:52;;;;;;;0.90;0.90;;;22.10;60.10;;;;;;4963297;28;20210;-71
2022/07/11 07:34:20;;;;;;;0.77;0.70;;;22.10;60.20;;;;;;4943445;28;20621;-71
2022/07/11 07:36:46;;;;;;;0.73;0.73;;;22.10;60.20;;;;;;4955332;28;20201;-71
2022/07/11 07:39:12;;;;;;;0.90;0.90;;;22.10;60.20;;;;;;4963523;28;20183;-71
2022/07/11 07:41:38;;;;;;;0.80;0.80;;;22.10;60.20;;;;;;4940018;28;20222;-71
2022/07/11 07:44:04;;;;;;;1.20;1.10;;;22.10;60.20;;;;;;4960380;28;20193;-71
2022/07/11 07:46:30;;;;;;;1.77;0.90;;;22.10;60.20;;;;;;4965681;28;20190;-71
2022/07/11 07:48:56;;;;;;;1.00;1.00;;;22.10;60.20;;;;;;4981438;28;20193;-71
2022/07/11 07:51:21;;;;;;;0.75;0.75;;;22.10;60.10;;;;;;4974044;28;20700;-71
2022/07/11 07:53:48;;;;;;;1.15;1.05;;;22.10;60.20;;;;;;4974180;28;20249;-71
2022/07/11 07:56:14;;;;;;;0.80;0.80;;;22.10;60.20;;;;;;4973095;28;20228;-71
2022/07/11 07:58:40;;;;;;;1.23;1.00;;;22.10;60.20;;;;;;4957728;28;20213;-71
2022/07/11 08:03:52;;;;;;;1.30;0.90;;;22.10;60.10;;;;;;4979028;28;20256;-72
2022/07/11 08:06:19;;;;;;;1.55;0.82;;;22.10;60.00;;;;;;4962004;28;20221;-72
2022/07/11 08:08:45;;;;;;;0.95;0.90;;;22.10;60.00;;;;;;4961958;28;20274;-72
2022/07/11 08:11:11;;;;;;;0.73;0.70;;;22.10;60.00;;;;;;4954183;29;20214;-71
2022/07/11 08:13:37;;;;;;;0.90;0.90;;;22.10;60.00;;;;;;4954637;28;20193;-71
2022/07/11 08:16:06;;;;;;;1.10;1.00;;;22.10;60.00;;;;;;4963794;28;20261;-72
2022/07/11 08:18:33;;;;;;;0.90;0.80;;;22.10;60.00;;;;;;4973567;28;20280;-71
2022/07/11 08:20:59;;;;;;;0.85;0.85;;;22.10;60.00;;;;;;4960533;28;20202;-71
2022/07/11 08:23:25;;;;;;;1.13;0.70;;;22.10;60.00;;;;;;4965051;28;20178;-71
2022/07/11 08:25:52;;;;;;;0.98;0.93;;;22.10;60.00;;;;;;4988418;28;20182;-71
2022/07/11 08:28:18;;;;;;;1.05;1.05;;;22.10;60.00;;;;;;4972699;28;20191;-71
2022/07/11 08:30:45;;;;;;;0.90;0.90;;;22.10;60.00;;;;;;4962484;28;20211;-72
2022/07/11 08:33:12;;;;;;;0.82;0.80;;;22.10;60.00;;;;;;4973502;28;20208;-71
2022/07/11 08:35:38;;;;;;;0.90;0.90;;;22.10;60.10;;;;;;4974083;28;20229;-71
2022/07/11 08:38:04;;;;;;;0.70;0.70;;;22.10;60.00;;;;;;4961038;28;20209;-72
2022/07/11 08:40:30;;;;;;;0.70;0.70;;;22.20;60.10;;;;;;4938495;28;20640;-72
2022/07/11 08:42:58;;;;;;;1.00;0.90;;;22.20;60.10;;;;;;4934142;29;20238;-72
2022/07/11 08:45:30;;;;;;;0.70;0.70;;;22.20;60.00;;;;;;4943657;29;20190;-72
2022/07/11 08:47:58;;;;;;;0.70;0.70;;;22.20;60.70;;;;;;4960776;28;20194;-71
2022/07/11 08:50:27;;;;;;;0.93;0.93;;;22.20;60.00;;;;;;4952722;28;20747;-71
2022/07/11 08:52:55;;;;;;;0.85;0.85;;;22.20;60.00;;;;;;4971233;28;20247;-71
2022/07/11 08:55:21;;;;;;;0.73;0.70;;;22.20;60.00;;;;;;4988323;28;20728;-71
2022/07/11 08:57:47;;;;;;;0.63;0.63;;;22.20;60.10;;;;;;4955127;28;20196;-71
2022/07/11 09:00:13;;;;;;;0.77;0.77;;;22.10;60.00;;;;;;4969067;28;20305;-71
2022/07/11 09:02:43;;;;;;;0.70;0.70;;;22.20;60.00;;;;;;4976467;28;20273;-71
2022/07/11 09:05:09;;;;;;;0.77;0.65;;;22.20;60.10;;;;;;4951583;28;20588;-71
2022/07/11 09:07:49;;;;;;;0.60;0.60;;;22.20;60.00;;;;;;4947423;29;20217;-71
2022/07/11 09:10:18;;;;;;;2.50;0.93;;;22.20;60.00;;;;;;4967248;28;20214;-72
2022/07/11 09:13:06;;;;;;;0.98;0.70;;;22.20;60.10;;;;;;4974610;28;20205;-71
2022/07/11 09:15:47;;;;;;;0.60;0.60;;;22.20;60.10;;;;;;4959024;28;20264;-71
2022/07/11 09:18:25;;;;;;;0.63;0.60;;;22.20;60.00;;;;;;4953829;28;20192;-71
2022/07/11 09:26:24;;;;;;;0.60;0.60;;;22.20;60.10;;;;;;4987100;28;20186;-71
2022/07/11 09:29:14;;;;;;;1.00;0.70;;;22.20;60.10;;;;;;4971029;28;20192;-71
2022/07/11 09:31:42;;;;;;;0.57;0.57;;;22.20;60.10;;;;;;4979138;28;20709;-71
2022/07/11 09:34:11;;;;;;;0.60;0.60;;;22.20;60.00;;;;;;4987604;28;20224;-71
2022/07/11 09:36:39;;;;;;;0.60;0.55;;;22.20;60.00;;;;;;4954582;28;20676;-72
2022/07/11 09:39:12;;;;;;;0.50;0.50;;;22.30;60.10;;;;;;4987834;28;20178;-71
2022/07/11 09:41:38;;;;;;;1.20;0.70;;;22.20;60.00;;;;;;4971473;28;20264;-72
2022/07/11 09:44:32;;;;;;;0.70;0.70;;;22.30;60.20;;;;;;4963834;28;20276;-71
2022/07/11 09:47:00;;;;;;;0.70;0.70;;;22.30;61.00;;;;;;4962888;28;20263;-71
2022/07/11 09:49:38;;;;;;;0.60;0.60;;;22.30;60.20;;;;;;4988396;28;20329;-72
2022/07/11 09:52:16;;;;;;;0.60;0.60;;;22.30;60.20;;;;;;4971974;28;20217;-72
2022/07/11 09:54:56;;;;;;;0.98;0.85;;;22.20;60.10;;;;;;4972404;28;20289;-72
2022/07/11 09:57:38;;;;;;;0.90;0.60;;;22.30;60.30;;;;;;4971644;28;20185;-71
2022/07/11 10:00:10;;;;;;;0.50;0.50;;;22.30;60.20;;;;;;4970993;28;20250;-71
2022/07/11 10:02:36;;;;;;;0.70;0.50;;;22.30;60.30;;;;;;4964401;28;20186;-71
2022/07/11 10:05:03;;;;;;;0.82;0.60;;;22.30;60.20;;;;;;4960831;28;20218;-71
2022/07/11 10:07:30;;;;;;;0.40;0.40;;;22.30;60.30;;;;;;4939626;28;20297;-71
2022/07/11 10:10:01;;;;;;;1.13;0.68;;;22.30;60.40;;;;;;4955160;28;20190;-71
2022/07/11 10:12:31;;;;;;;0.70;0.68;;;22.30;60.50;;;;;;4956015;28;20186;-71
2022/07/11 10:15:07;;;;;;;0.93;0.55;;;22.30;60.50;;;;;;4977896;28;20229;-72
2022/07/11 10:18:10;;;;;;;0.60;0.60;;;22.30;60.50;;;;;;4948164;28;20187;-71
2022/07/11 10:21:16;;;;;;;0.60;0.60;;;22.30;60.70;;;;;;4953849;28;20242;-70
2022/07/11 10:23:56;;;;;;;0.43;0.43;;;22.30;60.60;;;;;;4971869;28;20631;-70
2022/07/11 10:26:50;;;;;;;0.50;0.50;;;22.30;60.60;;;;;;4955534;28;20185;-71
2022/07/11 10:29:34;;;;;;;0.88;0.75;;;22.30;60.80;;;;;;4971946;28;20269;-70
2022/07/11 10:32:08;;;;;;;0.40;0.40;;;22.30;61.00;;;;;;4973012;28;20202;-70
2022/07/11 10:34:34;;;;;;;1.40;0.73;;;22.30;61.00;;;;;;4971489;28;20217;-70
2022/07/11 10:37:06;;;;;;;0.80;0.60;;;22.30;61.40;;;;;;4971030;28;20261;-70
2022/07/11 10:39:34;;;;;;;0.98;0.52;;;22.30;61.20;;;;;;4972495;28;20193;-70
2022/07/11 10:42:06;;;;;;;0.50;0.50;;;22.30;61.00;;;;;;4976608;28;20685;-70
2022/07/11 10:44:58;;;;;;;0.50;0.50;;;22.30;60.80;;;;;;4967303;28;20210;-70
2022/07/11 10:47:43;;;;;;;0.50;0.50;;;22.30;60.80;;;;;;4972155;28;20274;-70
2022/07/11 10:50:21;;;;;;;0.80;0.50;;;22.30;60.90;;;;;;4952635;29;20213;-70
2022/07/11 10:52:49;;;;;;;0.45;0.40;;;22.30;61.00;;;;;;4920715;29;20199;-70
2022/07/11 10:55:36;;;;;;;1.50;0.60;;;22.40;61.10;;;;;;4936297;29;20219;-70
2022/07/11 10:58:29;;;;;;;0.70;0.57;;;22.30;61.00;;;;;;4948734;28;20181;-71
2022/07/11 11:01:13;;;;;;;0.60;0.60;;;22.30;61.10;;;;;;4941719;28;20715;-70
2022/07/11 11:03:41;;;;;;;0.50;0.50;;;22.30;61.10;;;;;;4945363;28;20178;-71
2022/07/11 11:06:09;;;;;;;3.25;0.90;;;22.40;61.40;;;;;;4972900;28;20201;-71
2022/07/11 11:08:40;;;;;;;7.13;1.10;;;22.40;61.50;;;;;;4955883;28;20197;-71
2022/07/11 11:11:29;;;;;;;3.90;1.20;;;22.60;62.70;;;;;;4991331;28;20217;-72
2022/07/11 11:14:18;;;;;;;6.60;1.35;;;22.60;63.00;;;;;;4970420;28;20222;-71
2022/07/11 11:16:45;;;;;;;2.88;0.80;;;22.70;63.30;;;;;;4963890;28;20194;-70
2022/07/11 11:19:48;;;;;;;1.42;0.95;;;22.70;63.40;;;;;;4983614;28;20185;-70
2022/07/11 11:22:16;;;;;;;3.88;0.73;;;22.80;63.60;;;;;;4975296;28;20263;-71
2022/07/11 11:24:44;;;;;;;7.25;1.10;;;22.80;63.50;;;;;;4955919;29;20179;-70
2022/07/11 11:27:19;;;;;;;5.82;0.77;;;22.80;63.40;;;;;;4973448;28;20185;-71
2022/07/11 11:29:45;;;;;;;3.42;0.73;;;22.80;63.40;;;;;;4944359;28;20206;-70
2022/07/11 11:32:12;;;;;;;1.42;0.80;;;22.80;63.40;;;;;;4955762;28;20183;-70
2022/07/11 11:34:41;;;;;;;2.80;1.10;;;22.80;63.40;;;;;;4954774;28;20305;-70
2022/07/11 11:37:07;;;;;;;3.95;1.13;;;22.80;63.30;;;;;;4942749;28;20187;-71
2022/07/11 11:39:39;;;;;;;3.10;0.80;;;22.90;63.30;;;;;;4944307;29;20249;-71
2022/07/11 11:42:16;;;;;;;3.60;0.85;;;22.90;63.30;;;;;;4940243;28;20233;-70
2022/07/11 11:44:59;;;;;;;2.83;0.90;;;22.90;63.20;;;;;;4952536;28;20202;-71
2022/07/11 11:47:28;;;;;;;3.28;0.90;;;22.90;63.20;;;;;;4976152;28;20194;-70
2022/07/11 11:49:54;;;;;;;3.95;0.60;;;22.90;63.20;;;;;;4960174;28;20182;-70
2022/07/11 11:52:20;;;;;;;11.98;1.30;;;22.90;63.10;;;;;;4964091;28;20238;-71
2022/07/11 11:54:58;;;;;;;4.00;0.90;;;22.90;63.10;;;;;;4986809;28;20214;-71
2022/07/11 11:57:27;;;;;;;5.00;1.20;;;22.90;63.00;;;;;;4954090;28;20226;-70
2022/07/11 11:59:53;;;;;;;2.83;1.08;;;22.90;63.00;;;;;;4986173;28;20721;-71
2022/07/11 12:02:26;;;;;;;2.40;1.10;;;22.90;63.10;;;;;;4959516;28;20207;-70
2022/07/11 12:04:51;;;;;;;1.00;0.80;;;22.90;63.10;;;;;;4971033;28;20189;-70
2022/07/11 12:07:29;;;;;;;3.13;0.80;;;22.90;64.00;;;;;;4950000;28;20186;-70
2022/07/11 12:09:59;;;;;;;4.43;0.80;;;22.90;63.00;;;;;;4978983;28;20181;-70
2022/07/11 12:12:43;;;;;;;4.38;0.95;;;22.90;63.10;;;;;;4969766;28;20189;-71
2022/07/11 12:15:26;;;;;;;3.55;1.17;;;22.90;63.10;;;;;;4969552;28;20256;-71
2022/07/11 12:17:56;;;;;;;2.40;1.00;;;22.90;63.10;;;;;;4970388;28;20187;-71
2022/07/11 12:20:43;;;;;;;3.90;1.20;;;23.00;63.40;;;;;;4966520;28;20197;-71
2022/07/11 12:23:11;;;;;;;1.48;0.68;;;23.00;63.30;;;;;;4959457;28;20232;-71
2022/07/11 12:25:38;;;;;;;0.77;0.70;;;23.00;63.30;;;;;;4989599;28;20267;-70
2022/07/11 12:28:07;;;;;;;1.88;0.73;;;23.00;63.20;;;;;;4963901;28;20193;-71
2022/07/11 12:30:33;;;;;;;2.70;1.20;;;23.00;63.40;;;;;;4953072;28;20209;-71
2022/07/11 12:33:17;;;;;;;3.88;0.82;;;23.00;63.30;;;;;;4989173;28;20200;-71
2022/07/11 12:36:04;;;;;;;1.63;0.80;;;23.00;63.30;;;;;;4973139;28;20209;-70
2022/07/11 12:38:52;;;;;;;2.83;0.93;;;23.00;63.30;;;;;;4972342;28;20575;-70
2022/07/11 12:41:18;;;;;;;1.55;0.70;;;23.00;63.40;;;;;;4950313;28;20209;-70
2022/07/11 12:46:36;;;;;;;4.28;1.00;;;23.00;63.50;;;;;;4965423;28;20193;-70
2022/07/11 12:49:10;;;;;;;1.25;1.00;;;23.00;63.70;;;;;;4973371;28;20320;-70
2022/07/11 12:51:42;;;;;;;3.08;0.98;;;23.00;63.70;;;;;;4977380;28;20266;-71
2022/07/11 12:54:12;;;;;;;3.40;0.90;;;23.00;63.70;;;;;;4967310;28;20278;-71
2022/07/11 12:56:39;;;;;;;2.90;1.00;;;23.00;63.70;;;;;;4963642;28;20187;-71
2022/07/11 12:59:06;;;;;;;4.28;1.05;;;23.00;63.70;;;;;;4956385;28;20188;-70
2022/07/11 13:01:33;;;;;;;3.83;1.00;;;23.00;63.80;;;;;;4951606;28;20219;-71
2022/07/11 13:03:59;;;;;;;1.85;0.80;;;22.90;63.80;;;;;;4963963;28;20289;-70
2022/07/11 13:09:14;;;;;;;3.55;1.25;;;22.80;63.90;;;;;;4980627;28;20193;-70
2022/07/11 13:11:39;;;;;;;2.22;0.90;;;22.70;63.80;;;;;;4955146;28;20285;-70
2022/07/11 13:15:08;;;;;;;2.45;0.90;;;22.70;63.80;;;;;;4956791;28;20630;-70